sensor_id;sensor_type;location;lat;lon;timestamp;P1;durP1;ratioP1;P2;durP2;ratioP2
17604;SDS011;8921;50.964;6.800;2022-10-26T00:01:40;5.30;;;2.70;;
17604;SDS011;8921;50.964;6.800;2022-10-26T00:04:08;8.20;;;3.13;;
17604;SDS011;8921;50.964;6.800;2022-10-26T00:06:39;6.10;;;2.83;;
17604;SDS011;8921;50.964;6.800;2022-10-26T00:09:07;7.87;;;2.77;;
17604;SDS011;8921;50.964;6.800;2022-10-26T00:11:36;5.93;;;3.03;;
17604;SDS011;8921;50.964;6.800;2022-10-26T00:14:04;7.37;;;3.47;;
17604;SDS011;8921;50.964;6.800;2022-10-26T00:16:32;9.73;;;2.93;;
17604;SDS011;8921;50.964;6.800;2022-10-26T00:19:00;8.60;;;4.00;;
17604;SDS011;8921;50.964;6.800;2022-10-26T00:21:39;7.67;;;3.00;;
17604;SDS011;8921;50.964;6.800;2022-10-26T00:24:09;14.03;;;3.20;;
17604;SDS011;8921;50.964;6.800;2022-10-26T00:26:36;5.03;;;2.70;;
17604;SDS011;8921;50.964;6.800;2022-10-26T00:29:06;6.57;;;2.60;;
17604;SDS011;8921;50.964;6.800;2022-10-26T00:31:33;4.77;;;2.80;;
17604;SDS011;8921;50.964;6.800;2022-10-26T00:34:01;7.77;;;3.00;;
17604;SDS011;8921;50.964;6.800;2022-10-26T00:36:29;5.83;;;2.87;;
17604;SDS011;8921;50.964;6.800;2022-10-26T00:38:58;6.30;;;2.97;;
17604;SDS011;8921;50.964;6.800;2022-10-26T00:41:28;4.57;;;2.50;;
17604;SDS011;8921;50.964;6.800;2022-10-26T00:43:54;6.90;;;2.80;;
17604;SDS011;8921;50.964;6.800;2022-10-26T00:46:27;5.57;;;2.77;;
17604;SDS011;8921;50.964;6.800;2022-10-26T00:48:58;6.23;;;2.87;;
17604;SDS011;8921;50.964;6.800;2022-10-26T00:53:59;5.77;;;2.50;;
17604;SDS011;8921;50.964;6.800;2022-10-26T00:56:27;6.30;;;2.50;;
17604;SDS011;8921;50.964;6.800;2022-10-26T00:58:56;9.93;;;2.63;;
17604;SDS011;8921;50.964;6.800;2022-10-26T01:01:24;5.73;;;3.43;;
17604;SDS011;8921;50.964;6.800;2022-10-26T01:03:52;4.90;;;3.07;;
17604;SDS011;8921;50.964;6.800;2022-10-26T01:06:20;9.10;;;2.87;;
17604;SDS011;8921;50.964;6.800;2022-10-26T01:08:49;4.80;;;2.53;;
17604;SDS011;8921;50.964;6.800;2022-10-26T01:11:17;6.73;;;2.60;;
17604;SDS011;8921;50.964;6.800;2022-10-26T01:13:45;9.73;;;2.73;;
17604;SDS011;8921;50.964;6.800;2022-10-26T01:21:46;7.97;;;2.83;;
17604;SDS011;8921;50.964;6.800;2022-10-26T01:26:56;6.50;;;3.10;;
17604;SDS011;8921;50.964;6.800;2022-10-26T01:31:59;4.73;;;2.40;;
17604;SDS011;8921;50.964;6.800;2022-10-26T01:36:57;5.57;;;2.20;;
17604;SDS011;8921;50.964;6.800;2022-10-26T01:39:28;6.43;;;3.70;;
17604;SDS011;8921;50.964;6.800;2022-10-26T01:41:57;5.63;;;2.17;;
17604;SDS011;8921;50.964;6.800;2022-10-26T01:44:25;4.80;;;2.37;;
17604;SDS011;8921;50.964;6.800;2022-10-26T01:46:52;5.40;;;2.10;;
17604;SDS011;8921;50.964;6.800;2022-10-26T01:49:21;13.63;;;3.90;;
17604;SDS011;8921;50.964;6.800;2022-10-26T01:51:48;6.20;;;2.27;;
17604;SDS011;8921;50.964;6.800;2022-10-26T01:54:17;7.10;;;2.90;;
17604;SDS011;8921;50.964;6.800;2022-10-26T01:56:52;5.37;;;2.23;;
17604;SDS011;8921;50.964;6.800;2022-10-26T02:20:35;4.97;;;2.70;;
17604;SDS011;8921;50.964;6.800;2022-10-26T02:23:03;6.83;;;3.17;;
17604;SDS011;8921;50.964;6.800;2022-10-26T02:25:31;5.77;;;2.10;;
17604;SDS011;8921;50.964;6.800;2022-10-26T02:28:00;6.60;;;2.53;;
17604;SDS011;8921;50.964;6.800;2022-10-26T02:30:27;6.13;;;2.00;;
17604;SDS011;8921;50.964;6.800;2022-10-26T02:32:55;5.70;;;2.10;;
17604;SDS011;8921;50.964;6.800;2022-10-26T02:35:25;9.30;;;2.50;;
17604;SDS011;8921;50.964;6.800;2022-10-26T02:37:55;4.73;;;2.57;;
17604;SDS011;8921;50.964;6.800;2022-10-26T02:40:25;4.23;;;2.07;;
17604;SDS011;8921;50.964;6.800;2022-10-26T02:42:51;4.17;;;1.90;;
17604;SDS011;8921;50.964;6.800;2022-10-26T02:45:21;8.20;;;2.23;;
17604;SDS011;8921;50.964;6.800;2022-10-26T02:47:48;9.13;;;2.23;;
17604;SDS011;8921;50.964;6.800;2022-10-26T02:50:16;4.57;;;2.33;;
17604;SDS011;8921;50.964;6.800;2022-10-26T02:52:51;4.43;;;2.87;;
17604;SDS011;8921;50.964;6.800;2022-10-26T02:55:29;5.10;;;2.73;;
17604;SDS011;8921;50.964;6.800;2022-10-26T02:58:03;6.63;;;2.20;;
17604;SDS011;8921;50.964;6.800;2022-10-26T03:00:30;7.53;;;2.17;;
17604;SDS011;8921;50.964;6.800;2022-10-26T03:02:58;12.63;;;2.90;;
17604;SDS011;8921;50.964;6.800;2022-10-26T03:05:27;5.20;;;1.80;;
17604;SDS011;8921;50.964;6.800;2022-10-26T03:07:55;6.03;;;2.53;;
17604;SDS011;8921;50.964;6.800;2022-10-26T03:10:23;8.10;;;2.93;;
17604;SDS011;8921;50.964;6.800;2022-10-26T03:12:51;4.93;;;2.13;;
17604;SDS011;8921;50.964;6.800;2022-10-26T03:15:20;5.47;;;2.00;;
17604;SDS011;8921;50.964;6.800;2022-10-26T03:17:48;5.67;;;2.93;;
17604;SDS011;8921;50.964;6.800;2022-10-26T03:20:16;4.23;;;2.17;;
17604;SDS011;8921;50.964;6.800;2022-10-26T03:22:46;8.20;;;2.20;;
17604;SDS011;8921;50.964;6.800;2022-10-26T03:25:13;6.00;;;2.40;;
17604;SDS011;8921;50.964;6.800;2022-10-26T03:27:41;8.50;;;2.10;;
17604;SDS011;8921;50.964;6.800;2022-10-26T03:30:09;5.00;;;2.17;;
17604;SDS011;8921;50.964;6.800;2022-10-26T03:32:38;6.70;;;2.60;;
17604;SDS011;8921;50.964;6.800;2022-10-26T03:35:06;5.83;;;2.37;;
17604;SDS011;8921;50.964;6.800;2022-10-26T03:37:35;4.60;;;2.20;;
17604;SDS011;8921;50.964;6.800;2022-10-26T03:40:03;5.00;;;2.60;;
17604;SDS011;8921;50.964;6.800;2022-10-26T03:42:37;6.13;;;2.10;;
17604;SDS011;8921;50.964;6.800;2022-10-26T03:45:06;6.43;;;2.63;;
17604;SDS011;8921;50.964;6.800;2022-10-26T03:47:39;8.50;;;2.70;;
17604;SDS011;8921;50.964;6.800;2022-10-26T03:50:02;8.00;;;2.20;;
17604;SDS011;8921;50.964;6.800;2022-10-26T03:52:31;8.13;;;3.20;;
17604;SDS011;8921;50.964;6.800;2022-10-26T03:54:59;8.50;;;2.97;;
17604;SDS011;8921;50.964;6.800;2022-10-26T03:57:27;7.03;;;2.50;;
17604;SDS011;8921;50.964;6.800;2022-10-26T03:59:55;6.07;;;2.10;;
17604;SDS011;8921;50.964;6.800;2022-10-26T04:02:24;5.60;;;2.20;;
17604;SDS011;8921;50.964;6.800;2022-10-26T04:04:52;6.37;;;2.50;;
17604;SDS011;8921;50.964;6.800;2022-10-26T04:07:20;10.60;;;2.63;;
17604;SDS011;8921;50.964;6.800;2022-10-26T04:09:49;14.43;;;3.47;;
17604;SDS011;8921;50.964;6.800;2022-10-26T04:12:17;7.43;;;3.60;;
17604;SDS011;8921;50.964;6.800;2022-10-26T04:14:45;6.60;;;2.70;;
17604;SDS011;8921;50.964;6.800;2022-10-26T04:17:13;7.17;;;2.53;;
17604;SDS011;8921;50.964;6.800;2022-10-26T04:19:42;10.57;;;3.43;;
17604;SDS011;8921;50.964;6.800;2022-10-26T04:22:10;7.70;;;3.60;;
17604;SDS011;8921;50.964;6.800;2022-10-26T04:24:38;6.03;;;2.73;;
17604;SDS011;8921;50.964;6.800;2022-10-26T04:27:06;10.30;;;3.30;;
17604;SDS011;8921;50.964;6.800;2022-10-26T04:29:35;8.57;;;3.50;;
17604;SDS011;8921;50.964;6.800;2022-10-26T04:32:03;5.70;;;3.30;;
17604;SDS011;8921;50.964;6.800;2022-10-26T04:34:31;9.33;;;3.30;;
17604;SDS011;8921;50.964;6.800;2022-10-26T04:37:00;5.63;;;3.07;;
17604;SDS011;8921;50.964;6.800;2022-10-26T04:39:28;7.37;;;2.73;;
17604;SDS011;8921;50.964;6.800;2022-10-26T04:41:56;9.23;;;3.90;;
17604;SDS011;8921;50.964;6.800;2022-10-26T04:44:24;6.97;;;3.13;;
17604;SDS011;8921;50.964;6.800;2022-10-26T04:46:53;10.67;;;2.90;;
17604;SDS011;8921;50.964;6.800;2022-10-26T04:49:21;5.90;;;2.40;;
17604;SDS011;8921;50.964;6.800;2022-10-26T04:51:49;7.50;;;2.63;;
17604;SDS011;8921;50.964;6.800;2022-10-26T04:54:18;5.60;;;2.60;;
17604;SDS011;8921;50.964;6.800;2022-10-26T04:56:46;6.90;;;3.00;;
17604;SDS011;8921;50.964;6.800;2022-10-26T04:59:14;6.07;;;2.60;;
17604;SDS011;8921;50.964;6.800;2022-10-26T05:01:42;12.73;;;3.50;;
17604;SDS011;8921;50.964;6.800;2022-10-26T05:04:11;5.27;;;2.27;;
17604;SDS011;8921;50.964;6.800;2022-10-26T05:06:39;8.97;;;2.93;;
17604;SDS011;8921;50.964;6.800;2022-10-26T05:09:07;9.17;;;2.77;;
17604;SDS011;8921;50.964;6.800;2022-10-26T05:11:36;6.87;;;2.53;;
17604;SDS011;8921;50.964;6.800;2022-10-26T05:14:04;12.13;;;3.10;;
17604;SDS011;8921;50.964;6.800;2022-10-26T05:16:32;7.70;;;3.10;;
17604;SDS011;8921;50.964;6.800;2022-10-26T05:19:01;8.67;;;2.97;;
17604;SDS011;8921;50.964;6.800;2022-10-26T05:21:29;10.27;;;2.70;;
17604;SDS011;8921;50.964;6.800;2022-10-26T05:23:57;7.20;;;2.93;;
17604;SDS011;8921;50.964;6.800;2022-10-26T05:26:25;7.07;;;2.43;;
17604;SDS011;8921;50.964;6.800;2022-10-26T05:28:54;6.50;;;3.10;;
17604;SDS011;8921;50.964;6.800;2022-10-26T05:31:22;8.00;;;2.73;;
17604;SDS011;8921;50.964;6.800;2022-10-26T05:33:50;6.60;;;2.50;;
17604;SDS011;8921;50.964;6.800;2022-10-26T05:36:19;7.23;;;2.63;;
17604;SDS011;8921;50.964;6.800;2022-10-26T05:38:47;11.60;;;2.67;;
17604;SDS011;8921;50.964;6.800;2022-10-26T05:41:15;9.10;;;3.07;;
17604;SDS011;8921;50.964;6.800;2022-10-26T05:43:45;7.93;;;2.80;;
17604;SDS011;8921;50.964;6.800;2022-10-26T05:46:12;6.80;;;2.60;;
17604;SDS011;8921;50.964;6.800;2022-10-26T05:48:40;8.23;;;2.60;;
17604;SDS011;8921;50.964;6.800;2022-10-26T05:51:08;5.37;;;2.73;;
17604;SDS011;8921;50.964;6.800;2022-10-26T05:53:37;7.73;;;4.00;;
17604;SDS011;8921;50.964;6.800;2022-10-26T05:58:48;6.13;;;3.37;;
17604;SDS011;8921;50.964;6.800;2022-10-26T06:01:23;10.40;;;4.00;;
17604;SDS011;8921;50.964;6.800;2022-10-26T06:04:00;8.93;;;3.17;;
17604;SDS011;8921;50.964;6.800;2022-10-26T06:06:33;6.33;;;3.10;;
17604;SDS011;8921;50.964;6.800;2022-10-26T06:08:59;9.03;;;3.30;;
17604;SDS011;8921;50.964;6.800;2022-10-26T06:11:28;11.70;;;3.30;;
17604;SDS011;8921;50.964;6.800;2022-10-26T06:13:56;9.97;;;3.80;;
17604;SDS011;8921;50.964;6.800;2022-10-26T06:19:08;14.03;;;5.40;;
17604;SDS011;8921;50.964;6.800;2022-10-26T06:24:16;10.10;;;4.60;;
17604;SDS011;8921;50.964;6.800;2022-10-26T06:29:19;11.60;;;6.53;;
17604;SDS011;8921;50.964;6.800;2022-10-26T06:31:44;15.70;;;9.30;;
17604;SDS011;8921;50.964;6.800;2022-10-26T06:34:20;23.77;;;9.03;;
17604;SDS011;8921;50.964;6.800;2022-10-26T06:36:40;17.80;;;11.40;;
17604;SDS011;8921;50.964;6.800;2022-10-26T06:39:09;19.53;;;12.57;;
17604;SDS011;8921;50.964;6.800;2022-10-26T06:41:37;24.27;;;15.50;;
17604;SDS011;8921;50.964;6.800;2022-10-26T06:44:05;26.50;;;16.73;;
17604;SDS011;8921;50.964;6.800;2022-10-26T06:51:50;7.70;;;3.70;;
17604;SDS011;8921;50.964;6.800;2022-10-26T06:57:09;6.10;;;2.63;;
17604;SDS011;8921;50.964;6.800;2022-10-26T06:59:38;11.37;;;3.20;;
17604;SDS011;8921;50.964;6.800;2022-10-26T07:02:07;6.30;;;2.70;;
17604;SDS011;8921;50.964;6.800;2022-10-26T07:04:34;6.70;;;4.20;;
17604;SDS011;8921;50.964;6.800;2022-10-26T07:07:02;8.83;;;3.30;;
17604;SDS011;8921;50.964;6.800;2022-10-26T07:09:30;7.90;;;3.67;;
17604;SDS011;8921;50.964;6.800;2022-10-26T07:11:59;7.03;;;3.70;;
17604;SDS011;8921;50.964;6.800;2022-10-26T07:14:27;5.93;;;3.90;;
17604;SDS011;8921;50.964;6.800;2022-10-26T07:16:55;11.13;;;4.30;;
17604;SDS011;8921;50.964;6.800;2022-10-26T07:19:23;6.53;;;3.70;;
17604;SDS011;8921;50.964;6.800;2022-10-26T07:21:55;7.50;;;3.00;;
17604;SDS011;8921;50.964;6.800;2022-10-26T07:24:23;7.77;;;3.73;;
17604;SDS011;8921;50.964;6.800;2022-10-26T07:26:54;6.37;;;2.90;;
17604;SDS011;8921;50.964;6.800;2022-10-26T07:29:23;10.03;;;3.67;;
17604;SDS011;8921;50.964;6.800;2022-10-26T07:31:51;8.30;;;3.37;;
17604;SDS011;8921;50.964;6.800;2022-10-26T07:34:19;12.63;;;3.33;;
17604;SDS011;8921;50.964;6.800;2022-10-26T07:36:47;6.30;;;3.37;;
17604;SDS011;8921;50.964;6.800;2022-10-26T07:39:15;9.47;;;2.93;;
17604;SDS011;8921;50.964;6.800;2022-10-26T07:41:44;11.83;;;4.50;;
17604;SDS011;8921;50.964;6.800;2022-10-26T07:44:12;8.60;;;4.13;;
17604;SDS011;8921;50.964;6.800;2022-10-26T07:46:40;6.63;;;2.90;;
17604;SDS011;8921;50.964;6.800;2022-10-26T07:49:09;7.20;;;3.40;;
17604;SDS011;8921;50.964;6.800;2022-10-26T07:51:37;6.80;;;3.50;;
17604;SDS011;8921;50.964;6.800;2022-10-26T07:54:05;6.60;;;3.03;;
17604;SDS011;8921;50.964;6.800;2022-10-26T07:56:33;13.70;;;3.80;;
17604;SDS011;8921;50.964;6.800;2022-10-26T07:59:02;7.30;;;2.90;;
17604;SDS011;8921;50.964;6.800;2022-10-26T08:01:30;7.20;;;2.50;;
17604;SDS011;8921;50.964;6.800;2022-10-26T08:03:58;7.03;;;2.80;;
17604;SDS011;8921;50.964;6.800;2022-10-26T08:06:26;7.30;;;2.97;;
17604;SDS011;8921;50.964;6.800;2022-10-26T08:08:55;7.70;;;2.80;;
17604;SDS011;8921;50.964;6.800;2022-10-26T08:11:23;10.10;;;2.73;;
17604;SDS011;8921;50.964;6.800;2022-10-26T08:13:52;7.37;;;2.67;;
17604;SDS011;8921;50.964;6.800;2022-10-26T08:16:20;6.77;;;2.57;;
17604;SDS011;8921;50.964;6.800;2022-10-26T08:18:48;7.10;;;3.40;;
17604;SDS011;8921;50.964;6.800;2022-10-26T08:21:16;8.60;;;2.33;;
17604;SDS011;8921;50.964;6.800;2022-10-26T08:23:44;31.20;;;4.20;;
17604;SDS011;8921;50.964;6.800;2022-10-26T08:26:13;7.53;;;3.43;;
17604;SDS011;8921;50.964;6.800;2022-10-26T08:28:41;8.03;;;3.80;;
17604;SDS011;8921;50.964;6.800;2022-10-26T08:31:09;7.33;;;2.93;;
17604;SDS011;8921;50.964;6.800;2022-10-26T08:33:38;11.60;;;3.40;;
17604;SDS011;8921;50.964;6.800;2022-10-26T08:36:06;16.07;;;5.80;;
17604;SDS011;8921;50.964;6.800;2022-10-26T08:38:34;8.17;;;3.50;;
17604;SDS011;8921;50.964;6.800;2022-10-26T08:41:06;6.70;;;2.70;;
17604;SDS011;8921;50.964;6.800;2022-10-26T08:46:21;7.33;;;3.10;;
17604;SDS011;8921;50.964;6.800;2022-10-26T08:48:55;12.33;;;4.80;;
17604;SDS011;8921;50.964;6.800;2022-10-26T08:51:24;23.90;;;4.60;;
17604;SDS011;8921;50.964;6.800;2022-10-26T08:59:33;8.03;;;3.00;;
17604;SDS011;8921;50.964;6.800;2022-10-26T09:01:58;9.70;;;4.23;;
17604;SDS011;8921;50.964;6.800;2022-10-26T09:04:26;12.03;;;3.30;;
17604;SDS011;8921;50.964;6.800;2022-10-26T09:07:01;9.73;;;2.73;;
17604;SDS011;8921;50.964;6.800;2022-10-26T09:09:45;7.30;;;2.53;;
17604;SDS011;8921;50.964;6.800;2022-10-26T09:12:27;7.07;;;2.47;;
17604;SDS011;8921;50.964;6.800;2022-10-26T09:15:12;6.10;;;2.40;;
17604;SDS011;8921;50.964;6.800;2022-10-26T09:25:35;11.27;;;2.90;;
17604;SDS011;8921;50.964;6.800;2022-10-26T09:28:00;10.53;;;2.77;;
17604;SDS011;8921;50.964;6.800;2022-10-26T09:30:29;7.27;;;2.70;;
17604;SDS011;8921;50.964;6.800;2022-10-26T09:33:02;5.90;;;2.67;;
17604;SDS011;8921;50.964;6.800;2022-10-26T09:35:42;5.77;;;2.40;;
17604;SDS011;8921;50.964;6.800;2022-10-26T09:38:12;5.40;;;2.30;;
17604;SDS011;8921;50.964;6.800;2022-10-26T09:40:39;5.30;;;2.30;;
17604;SDS011;8921;50.964;6.800;2022-10-26T09:43:12;10.00;;;3.20;;
17604;SDS011;8921;50.964;6.800;2022-10-26T09:45:47;5.53;;;3.30;;
17604;SDS011;8921;50.964;6.800;2022-10-26T09:48:34;35.97;;;5.57;;
17604;SDS011;8921;50.964;6.800;2022-10-26T09:51:00;5.40;;;2.77;;
17604;SDS011;8921;50.964;6.800;2022-10-26T09:53:28;6.13;;;2.63;;
17604;SDS011;8921;50.964;6.800;2022-10-26T09:56:00;4.90;;;2.23;;
17604;SDS011;8921;50.964;6.800;2022-10-26T09:58:31;6.97;;;3.70;;
17604;SDS011;8921;50.964;6.800;2022-10-26T10:00:59;8.00;;;3.70;;
17604;SDS011;8921;50.964;6.800;2022-10-26T10:03:30;13.10;;;4.23;;
17604;SDS011;8921;50.964;6.800;2022-10-26T10:06:17;5.63;;;2.87;;
17604;SDS011;8921;50.964;6.800;2022-10-26T10:09:03;6.37;;;2.97;;
17604;SDS011;8921;50.964;6.800;2022-10-26T10:11:13;10.10;;;2.87;;
17604;SDS011;8921;50.964;6.800;2022-10-26T10:13:42;7.63;;;2.83;;
17604;SDS011;8921;50.964;6.800;2022-10-26T10:18:41;8.50;;;3.07;;
17604;SDS011;8921;50.964;6.800;2022-10-26T10:21:09;5.50;;;2.77;;
17604;SDS011;8921;50.964;6.800;2022-10-26T10:23:47;8.57;;;2.97;;
17604;SDS011;8921;50.964;6.800;2022-10-26T10:26:17;8.53;;;3.53;;
17604;SDS011;8921;50.964;6.800;2022-10-26T10:28:55;15.93;;;2.80;;
17604;SDS011;8921;50.964;6.800;2022-10-26T10:31:29;6.93;;;3.30;;
17604;SDS011;8921;50.964;6.800;2022-10-26T10:34:20;10.50;;;2.97;;
17604;SDS011;8921;50.964;6.800;2022-10-26T10:36:48;5.60;;;2.30;;
17604;SDS011;8921;50.964;6.800;2022-10-26T10:39:27;3.93;;;1.70;;
17604;SDS011;8921;50.964;6.800;2022-10-26T10:41:51;6.10;;;2.10;;
17604;SDS011;8921;50.964;6.800;2022-10-26T10:44:21;5.27;;;2.40;;
17604;SDS011;8921;50.964;6.800;2022-10-26T10:46:48;4.20;;;1.80;;
17604;SDS011;8921;50.964;6.800;2022-10-26T10:49:20;7.20;;;2.13;;
17604;SDS011;8921;50.964;6.800;2022-10-26T10:51:47;5.53;;;2.03;;
17604;SDS011;8921;50.964;6.800;2022-10-26T10:54:31;9.03;;;2.40;;
17604;SDS011;8921;50.964;6.800;2022-10-26T10:57:02;6.80;;;2.50;;
17604;SDS011;8921;50.964;6.800;2022-10-26T10:59:41;8.20;;;2.50;;
17604;SDS011;8921;50.964;6.800;2022-10-26T11:08:08;6.10;;;2.40;;
17604;SDS011;8921;50.964;6.800;2022-10-26T11:10:37;4.30;;;1.50;;
17604;SDS011;8921;50.964;6.800;2022-10-26T11:15:45;3.77;;;1.63;;
17604;SDS011;8921;50.964;6.800;2022-10-26T11:18:20;4.43;;;1.33;;
17604;SDS011;8921;50.964;6.800;2022-10-26T11:20:55;7.63;;;1.80;;
17604;SDS011;8921;50.964;6.800;2022-10-26T11:23:39;5.70;;;2.47;;
17604;SDS011;8921;50.964;6.800;2022-10-26T11:26:11;6.27;;;2.07;;
17604;SDS011;8921;50.964;6.800;2022-10-26T11:31:29;8.83;;;2.03;;
17604;SDS011;8921;50.964;6.800;2022-10-26T11:34:01;6.50;;;2.50;;
17604;SDS011;8921;50.964;6.800;2022-10-26T11:36:42;5.80;;;2.23;;
17604;SDS011;8921;50.964;6.800;2022-10-26T11:39:13;5.10;;;2.03;;
17604;SDS011;8921;50.964;6.800;2022-10-26T11:46:46;4.50;;;1.63;;
17604;SDS011;8921;50.964;6.800;2022-10-26T11:49:16;6.30;;;1.70;;
17604;SDS011;8921;50.964;6.800;2022-10-26T11:51:54;4.90;;;1.43;;
17604;SDS011;8921;50.964;6.800;2022-10-26T11:54:27;9.37;;;2.27;;
17604;SDS011;8921;50.964;6.800;2022-10-26T11:56:53;4.37;;;2.00;;
17604;SDS011;8921;50.964;6.800;2022-10-26T11:59:27;7.33;;;3.50;;
17604;SDS011;8921;50.964;6.800;2022-10-26T12:01:56;4.37;;;2.00;;
17604;SDS011;8921;50.964;6.800;2022-10-26T12:04:24;6.43;;;2.03;;
17604;SDS011;8921;50.964;6.800;2022-10-26T12:06:51;4.70;;;1.70;;
17604;SDS011;8921;50.964;6.800;2022-10-26T12:09:21;5.13;;;1.87;;
17604;SDS011;8921;50.964;6.800;2022-10-26T12:11:49;5.67;;;1.50;;
17604;SDS011;8921;50.964;6.800;2022-10-26T12:14:26;5.27;;;1.73;;
17604;SDS011;8921;50.964;6.800;2022-10-26T12:17:12;5.77;;;1.80;;
17604;SDS011;8921;50.964;6.800;2022-10-26T12:19:58;10.23;;;1.97;;
17604;SDS011;8921;50.964;6.800;2022-10-26T12:22:24;5.43;;;1.40;;
17604;SDS011;8921;50.964;6.800;2022-10-26T12:25:03;7.30;;;1.70;;
17604;SDS011;8921;50.964;6.800;2022-10-26T12:30:12;4.83;;;1.80;;
17604;SDS011;8921;50.964;6.800;2022-10-26T12:37:55;8.13;;;1.50;;
17604;SDS011;8921;50.964;6.800;2022-10-26T12:45:42;6.53;;;1.60;;
17604;SDS011;8921;50.964;6.800;2022-10-26T13:01:49;3.83;;;1.37;;
17604;SDS011;8921;50.964;6.800;2022-10-26T13:04:27;9.90;;;1.43;;
17604;SDS011;8921;50.964;6.800;2022-10-26T13:07:09;3.50;;;1.63;;
17604;SDS011;8921;50.964;6.800;2022-10-26T13:09:39;5.10;;;1.20;;
17604;SDS011;8921;50.964;6.800;2022-10-26T13:12:07;3.50;;;1.40;;
17604;SDS011;8921;50.964;6.800;2022-10-26T13:14:37;4.80;;;1.40;;
17604;SDS011;8921;50.964;6.800;2022-10-26T13:17:03;5.07;;;1.30;;
17604;SDS011;8921;50.964;6.800;2022-10-26T13:19:40;7.00;;;1.40;;
17604;SDS011;8921;50.964;6.800;2022-10-26T13:22:16;6.37;;;2.10;;
17604;SDS011;8921;50.964;6.800;2022-10-26T13:25:03;3.47;;;1.40;;
17604;SDS011;8921;50.964;6.800;2022-10-26T13:27:22;3.57;;;1.17;;
17604;SDS011;8921;50.964;6.800;2022-10-26T13:32:33;6.03;;;1.40;;
17604;SDS011;8921;50.964;6.800;2022-10-26T13:35:00;5.37;;;1.87;;
17604;SDS011;8921;50.964;6.800;2022-10-26T13:37:29;3.47;;;1.30;;
17604;SDS011;8921;50.964;6.800;2022-10-26T13:39:57;4.20;;;1.37;;
17604;SDS011;8921;50.964;6.800;2022-10-26T13:42:26;3.70;;;1.43;;
17604;SDS011;8921;50.964;6.800;2022-10-26T13:50:14;5.43;;;1.43;;
17604;SDS011;8921;50.964;6.800;2022-10-26T13:52:42;5.97;;;1.50;;
17604;SDS011;8921;50.964;6.800;2022-10-26T13:55:16;3.87;;;1.30;;
17604;SDS011;8921;50.964;6.800;2022-10-26T14:01:03;7.13;;;1.70;;
17604;SDS011;8921;50.964;6.800;2022-10-26T14:03:36;5.63;;;1.47;;
17604;SDS011;8921;50.964;6.800;2022-10-26T14:06:47;5.77;;;1.43;;
17604;SDS011;8921;50.964;6.800;2022-10-26T14:08:56;5.50;;;1.50;;
17604;SDS011;8921;50.964;6.800;2022-10-26T14:11:35;6.10;;;1.40;;
17604;SDS011;8921;50.964;6.800;2022-10-26T14:14:03;5.87;;;1.87;;
17604;SDS011;8921;50.964;6.800;2022-10-26T14:16:31;3.90;;;1.50;;
17604;SDS011;8921;50.964;6.800;2022-10-26T14:18:59;9.80;;;3.17;;
17604;SDS011;8921;50.964;6.800;2022-10-26T14:21:28;7.70;;;1.50;;
17604;SDS011;8921;50.964;6.800;2022-10-26T14:23:57;3.50;;;1.20;;
17604;SDS011;8921;50.964;6.800;2022-10-26T14:26:26;9.63;;;1.90;;
17604;SDS011;8921;50.964;6.800;2022-10-26T14:28:57;3.60;;;1.60;;
17604;SDS011;8921;50.964;6.800;2022-10-26T14:31:30;6.30;;;1.30;;
17604;SDS011;8921;50.964;6.800;2022-10-26T14:33:56;3.40;;;1.30;;
17604;SDS011;8921;50.964;6.800;2022-10-26T14:39:01;4.40;;;1.80;;
17604;SDS011;8921;50.964;6.800;2022-10-26T14:41:29;3.30;;;1.33;;
17604;SDS011;8921;50.964;6.800;2022-10-26T14:43:57;3.07;;;1.37;;
17604;SDS011;8921;50.964;6.800;2022-10-26T14:46:26;5.43;;;1.50;;
17604;SDS011;8921;50.964;6.800;2022-10-26T14:48:54;3.53;;;1.20;;
17604;SDS011;8921;50.964;6.800;2022-10-26T14:51:26;3.70;;;1.23;;
17604;SDS011;8921;50.964;6.800;2022-10-26T14:53:54;4.90;;;1.40;;
17604;SDS011;8921;50.964;6.800;2022-10-26T14:56:26;4.70;;;1.30;;
17604;SDS011;8921;50.964;6.800;2022-10-26T14:58:52;4.73;;;1.00;;
17604;SDS011;8921;50.964;6.800;2022-10-26T15:03:56;4.90;;;1.20;;
17604;SDS011;8921;50.964;6.800;2022-10-26T15:06:29;4.90;;;1.40;;
17604;SDS011;8921;50.964;6.800;2022-10-26T15:09:01;5.27;;;1.40;;
17604;SDS011;8921;50.964;6.800;2022-10-26T15:11:28;3.40;;;1.23;;
17604;SDS011;8921;50.964;6.800;2022-10-26T15:13:57;3.20;;;1.20;;
17604;SDS011;8921;50.964;6.800;2022-10-26T15:16:26;6.00;;;1.27;;
17604;SDS011;8921;50.964;6.800;2022-10-26T15:18:55;3.90;;;1.40;;
17604;SDS011;8921;50.964;6.800;2022-10-26T15:21:23;4.20;;;1.30;;
17604;SDS011;8921;50.964;6.800;2022-10-26T15:23:56;4.43;;;1.20;;
17604;SDS011;8921;50.964;6.800;2022-10-26T15:26:24;3.23;;;1.27;;
17604;SDS011;8921;50.964;6.800;2022-10-26T15:28:53;3.20;;;1.20;;
17604;SDS011;8921;50.964;6.800;2022-10-26T15:38:48;4.50;;;1.50;;
17604;SDS011;8921;50.964;6.800;2022-10-26T15:41:21;4.97;;;1.50;;
17604;SDS011;8921;50.964;6.800;2022-10-26T15:43:48;5.60;;;1.47;;
17604;SDS011;8921;50.964;6.800;2022-10-26T15:46:16;3.40;;;1.33;;
17604;SDS011;8921;50.964;6.800;2022-10-26T15:48:54;3.57;;;1.20;;
17604;SDS011;8921;50.964;6.800;2022-10-26T15:51:21;6.20;;;1.50;;
17604;SDS011;8921;50.964;6.800;2022-10-26T15:53:50;3.73;;;1.40;;
17604;SDS011;8921;50.964;6.800;2022-10-26T15:56:19;4.50;;;2.17;;
17604;SDS011;8921;50.964;6.800;2022-10-26T15:58:46;7.10;;;1.80;;
17604;SDS011;8921;50.964;6.800;2022-10-26T16:01:15;4.87;;;1.90;;
17604;SDS011;8921;50.964;6.800;2022-10-26T16:03:43;5.30;;;1.63;;
17604;SDS011;8921;50.964;6.800;2022-10-26T16:06:18;4.87;;;1.77;;
17604;SDS011;8921;50.964;6.800;2022-10-26T16:08:49;7.03;;;1.70;;
17604;SDS011;8921;50.964;6.800;2022-10-26T16:11:16;4.30;;;1.73;;
17604;SDS011;8921;50.964;6.800;2022-10-26T16:13:44;4.70;;;1.73;;
17604;SDS011;8921;50.964;6.800;2022-10-26T16:16:13;5.57;;;1.70;;
17604;SDS011;8921;50.964;6.800;2022-10-26T16:18:41;5.67;;;2.10;;
17604;SDS011;8921;50.964;6.800;2022-10-26T16:21:13;6.37;;;2.07;;
17604;SDS011;8921;50.964;6.800;2022-10-26T16:23:41;4.87;;;2.37;;
17604;SDS011;8921;50.964;6.800;2022-10-26T16:26:09;4.47;;;1.70;;
17604;SDS011;8921;50.964;6.800;2022-10-26T16:28:37;4.70;;;2.13;;
17604;SDS011;8921;50.964;6.800;2022-10-26T16:31:06;9.87;;;2.93;;
17604;SDS011;8921;50.964;6.800;2022-10-26T16:33:34;12.97;;;3.10;;
17604;SDS011;8921;50.964;6.800;2022-10-26T16:36:02;6.93;;;2.63;;
17604;SDS011;8921;50.964;6.800;2022-10-26T16:38:31;4.53;;;1.87;;
17604;SDS011;8921;50.964;6.800;2022-10-26T16:41:01;3.60;;;1.40;;
17604;SDS011;8921;50.964;6.800;2022-10-26T16:43:29;9.63;;;3.37;;
17604;SDS011;8921;50.964;6.800;2022-10-26T16:45:55;6.23;;;2.03;;
17604;SDS011;8921;50.964;6.800;2022-10-26T16:48:24;4.53;;;1.50;;
17604;SDS011;8921;50.964;6.800;2022-10-26T16:50:52;7.80;;;2.03;;
17604;SDS011;8921;50.964;6.800;2022-10-26T16:53:20;6.43;;;2.07;;
17604;SDS011;8921;50.964;6.800;2022-10-26T16:55:49;10.60;;;1.93;;
17604;SDS011;8921;50.964;6.800;2022-10-26T16:58:17;6.17;;;1.80;;
17604;SDS011;8921;50.964;6.800;2022-10-26T17:00:45;7.63;;;2.20;;
17604;SDS011;8921;50.964;6.800;2022-10-26T17:03:14;5.53;;;1.57;;
17604;SDS011;8921;50.964;6.800;2022-10-26T17:05:42;4.90;;;1.60;;
17604;SDS011;8921;50.964;6.800;2022-10-26T17:08:10;4.40;;;1.80;;
17604;SDS011;8921;50.964;6.800;2022-10-26T17:10:38;6.70;;;2.27;;
17604;SDS011;8921;50.964;6.800;2022-10-26T17:13:07;4.20;;;1.70;;
17604;SDS011;8921;50.964;6.800;2022-10-26T17:15:35;8.43;;;3.57;;
17604;SDS011;8921;50.964;6.800;2022-10-26T17:18:03;8.30;;;2.70;;
17604;SDS011;8921;50.964;6.800;2022-10-26T17:20:32;4.70;;;1.83;;
17604;SDS011;8921;50.964;6.800;2022-10-26T17:23:00;7.33;;;2.40;;
17604;SDS011;8921;50.964;6.800;2022-10-26T17:25:28;5.87;;;2.20;;
17604;SDS011;8921;50.964;6.800;2022-10-26T17:27:57;5.63;;;2.10;;
17604;SDS011;8921;50.964;6.800;2022-10-26T17:30:25;4.57;;;1.83;;
17604;SDS011;8921;50.964;6.800;2022-10-26T17:32:53;5.90;;;2.30;;
17604;SDS011;8921;50.964;6.800;2022-10-26T17:35:22;4.93;;;1.67;;
17604;SDS011;8921;50.964;6.800;2022-10-26T17:37:50;6.93;;;2.87;;